KCFV/CFV METAR and TAF weather

Enter ICAO airport designator
Station Type Date Time Source
KCFV METAR 2019/12/07 09:52 UTC NOAA

KCFV 070952Z AUTO 33004KT 10SM CLR M03/M05 A3035 RMK AO2 SLP284 I1000 T10331050


Station Type Date Time Source
KCFV Decoded METAR 2019/12/07 09:52 UTC NOAA

COFFEYVILLE MUNICIPAL AIRPORT , KS, United States (KCFV) 37-05N 95-34W 225M
Dec 07, 2019 - 04:52 AM EST / 2019.12.07 0952 UTC
Wind: from the NNW (330 degrees) at 5 MPH (4 KT):0
Visibility: 10 mile(s):0
Sky conditions: clear
Temperature: 26.1 F (-3.3 C)
Windchill: 19 F (-7 C):1
Dew Point: 23.0 F (-5.0 C)
Relative Humidity: 87%
Pressure (altimeter): 30.35 in. Hg (1027 hPa)
ob: KCFV 070952Z AUTO 33004KT 10SM CLR M03/M05 A3035 RMK AO2 SLP284 I1000 T10331050
cycle: 10

Station Type Date Time Source
KCFV TAF UTC NOAA

Error!

Example: see airport list